createdAt,value
2019-03-28T00:26:13.483Z,99.40
2019-03-28T00:56:17.375Z,99.90
2019-03-28T01:26:21.235Z,99.90
2019-03-28T01:56:25.297Z,99.40
2019-03-28T02:26:29.539Z,99.40
2019-03-28T02:56:33.439Z,99.20
2019-03-28T03:26:37.210Z,99.10
2019-03-28T03:56:41.039Z,99.90
2019-03-28T04:26:45.154Z,99.90
2019-03-28T04:56:49.343Z,99.90
2019-03-28T05:26:53.462Z,99.90
2019-03-28T05:56:57.232Z,99.90
2019-03-28T06:27:01.014Z,99.90
2019-03-28T06:57:04.795Z,99.90
2019-03-28T07:27:08.571Z,99.90
2019-03-28T07:57:12.246Z,99.90
2019-03-28T08:27:16.084Z,99.90
2019-03-28T08:57:19.869Z,99.90
2019-03-28T09:27:23.666Z,99.90
2019-03-28T09:57:27.384Z,79.20
2019-03-28T10:27:31.256Z,93.80
2019-03-28T10:57:35.196Z,90.30
2019-03-28T11:27:39.035Z,87.00
2019-03-28T11:57:42.813Z,83.00
2019-03-28T12:27:47.085Z,81.10
2019-03-28T12:57:50.969Z,81.00
2019-03-28T13:27:54.787Z,77.30
2019-03-28T13:57:58.767Z,78.60
2019-03-28T14:28:02.544Z,80.00
2019-03-28T14:58:07.432Z,77.20
2019-03-28T15:28:11.755Z,78.60
2019-03-28T15:58:23.191Z,79.00
2019-03-28T16:28:20.929Z,73.50
2019-03-28T16:58:24.893Z,76.40
2019-03-28T17:28:29.936Z,76.80
2019-03-28T17:58:34.607Z,76.30
2019-03-28T18:28:38.527Z,83.10
2019-03-28T18:58:42.322Z,84.80
2019-03-28T19:28:46.132Z,87.70
2019-03-28T19:58:50.002Z,89.20
2019-03-28T20:28:53.878Z,90.80
2019-03-28T20:58:57.899Z,92.20
2019-03-28T21:29:01.727Z,92.80
2019-03-28T21:59:07.068Z,93.40
2019-03-28T22:29:11.029Z,93.60
2019-03-28T22:59:14.790Z,94.60
2019-03-28T23:29:18.795Z,95.20
2019-03-28T23:59:22.617Z,95.00
